sensor_id;sensor_type;location;lat;lon;timestamp;P1;durP1;ratioP1;P2;durP2;ratioP2
4078;SDS011;2054;47.858;11.156;2022-11-15T03:45:45;3.42;;;2.40;;
4078;SDS011;2054;47.858;11.156;2022-11-15T03:48:14;6.32;;;2.83;;
4078;SDS011;2054;47.858;11.156;2022-11-15T03:50:42;3.10;;;2.53;;
4078;SDS011;2054;47.858;11.156;2022-11-15T03:53:10;3.22;;;2.50;;
4078;SDS011;2054;47.858;11.156;2022-11-15T03:55:37;4.35;;;2.60;;
4078;SDS011;2054;47.858;11.156;2022-11-15T03:58:05;5.05;;;3.05;;
4078;SDS011;2054;47.858;11.156;2022-11-15T04:00:32;4.13;;;2.60;;
4078;SDS011;2054;47.858;11.156;2022-11-15T04:03:01;5.05;;;3.08;;
4078;SDS011;2054;47.858;11.156;2022-11-15T04:05:28;5.63;;;3.50;;
4078;SDS011;2054;47.858;11.156;2022-11-15T04:07:56;4.60;;;2.97;;
4078;SDS011;2054;47.858;11.156;2022-11-15T04:10:23;5.10;;;2.42;;
4078;SDS011;2054;47.858;11.156;2022-11-15T04:12:50;4.22;;;2.75;;
4078;SDS011;2054;47.858;11.156;2022-11-15T04:15:19;2.78;;;2.25;;
4078;SDS011;2054;47.858;11.156;2022-11-15T04:17:46;3.72;;;2.40;;
4078;SDS011;2054;47.858;11.156;2022-11-15T04:20:16;6.60;;;2.75;;
4078;SDS011;2054;47.858;11.156;2022-11-15T04:23:02;4.78;;;2.65;;
4078;SDS011;2054;47.858;11.156;2022-11-15T04:25:47;4.15;;;2.70;;
4078;SDS011;2054;47.858;11.156;2022-11-15T04:28:16;4.90;;;2.30;;
4078;SDS011;2054;47.858;11.156;2022-11-15T04:30:43;5.97;;;2.95;;
4078;SDS011;2054;47.858;11.156;2022-11-15T04:33:10;5.15;;;3.03;;
4078;SDS011;2054;47.858;11.156;2022-11-15T04:35:39;4.18;;;2.60;;
4078;SDS011;2054;47.858;11.156;2022-11-15T04:38:07;4.80;;;3.22;;
4078;SDS011;2054;47.858;11.156;2022-11-15T04:40:34;7.60;;;3.33;;
4078;SDS011;2054;47.858;11.156;2022-11-15T04:43:01;5.75;;;3.35;;
4078;SDS011;2054;47.858;11.156;2022-11-15T04:45:28;5.20;;;3.00;;
4078;SDS011;2054;47.858;11.156;2022-11-15T04:47:55;5.68;;;3.97;;
4078;SDS011;2054;47.858;11.156;2022-11-15T04:50:22;4.95;;;3.28;;
4078;SDS011;2054;47.858;11.156;2022-11-15T04:52:52;5.80;;;2.97;;
4078;SDS011;2054;47.858;11.156;2022-11-15T04:55:19;5.30;;;2.85;;
4078;SDS011;2054;47.858;11.156;2022-11-15T04:57:47;5.53;;;2.95;;
4078;SDS011;2054;47.858;11.156;2022-11-15T05:00:15;4.78;;;3.00;;
4078;SDS011;2054;47.858;11.156;2022-11-15T05:02:43;3.70;;;2.58;;
4078;SDS011;2054;47.858;11.156;2022-11-15T05:05:27;3.35;;;2.70;;
4078;SDS011;2054;47.858;11.156;2022-11-15T05:07:56;4.93;;;2.75;;
4078;SDS011;2054;47.858;11.156;2022-11-15T05:10:23;4.90;;;3.00;;
4078;SDS011;2054;47.858;11.156;2022-11-15T05:12:50;4.35;;;2.72;;
4078;SDS011;2054;47.858;11.156;2022-11-15T05:15:17;5.78;;;2.10;;
4078;SDS011;2054;47.858;11.156;2022-11-15T05:17:45;6.47;;;2.90;;
4078;SDS011;2054;47.858;11.156;2022-11-15T05:20:12;5.43;;;2.65;;
4078;SDS011;2054;47.858;11.156;2022-11-15T05:22:39;4.68;;;2.85;;
4078;SDS011;2054;47.858;11.156;2022-11-15T05:25:08;3.90;;;2.75;;
4078;SDS011;2054;47.858;11.156;2022-11-15T05:27:35;4.90;;;2.53;;
4078;SDS011;2054;47.858;11.156;2022-11-15T05:30:02;5.03;;;2.78;;
4078;SDS011;2054;47.858;11.156;2022-11-15T05:32:30;3.58;;;2.22;;
4078;SDS011;2054;47.858;11.156;2022-11-15T05:34:57;8.00;;;3.58;;
4078;SDS011;2054;47.858;11.156;2022-11-15T05:37:24;4.95;;;2.83;;
4078;SDS011;2054;47.858;11.156;2022-11-15T05:39:51;3.58;;;2.47;;
4078;SDS011;2054;47.858;11.156;2022-11-15T05:42:20;3.83;;;2.70;;
4078;SDS011;2054;47.858;11.156;2022-11-15T05:44:47;3.15;;;2.47;;
4078;SDS011;2054;47.858;11.156;2022-11-15T05:47:16;4.47;;;2.50;;
4078;SDS011;2054;47.858;11.156;2022-11-15T05:49:44;4.28;;;3.05;;
4078;SDS011;2054;47.858;11.156;2022-11-15T05:52:12;7.80;;;3.35;;
4078;SDS011;2054;47.858;11.156;2022-11-15T05:54:41;5.78;;;3.03;;
4078;SDS011;2054;47.858;11.156;2022-11-15T05:57:08;5.88;;;3.53;;
4078;SDS011;2054;47.858;11.156;2022-11-15T05:59:37;6.75;;;4.05;;
4078;SDS011;2054;47.858;11.156;2022-11-15T06:02:05;6.50;;;3.78;;
4078;SDS011;2054;47.858;11.156;2022-11-15T06:04:33;10.63;;;4.05;;
4078;SDS011;2054;47.858;11.156;2022-11-15T06:07:00;7.32;;;4.03;;
4078;SDS011;2054;47.858;11.156;2022-11-15T06:09:27;7.25;;;3.90;;
4078;SDS011;2054;47.858;11.156;2022-11-15T06:11:54;6.97;;;4.15;;
4078;SDS011;2054;47.858;11.156;2022-11-15T06:14:21;4.95;;;3.45;;
4078;SDS011;2054;47.858;11.156;2022-11-15T06:16:50;4.43;;;3.25;;
4078;SDS011;2054;47.858;11.156;2022-11-15T06:19:17;6.68;;;3.30;;
4078;SDS011;2054;47.858;11.156;2022-11-15T06:21:44;7.38;;;3.47;;
4078;SDS011;2054;47.858;11.156;2022-11-15T06:24:11;5.70;;;3.58;;
4078;SDS011;2054;47.858;11.156;2022-11-15T06:26:39;9.80;;;4.75;;
4078;SDS011;2054;47.858;11.156;2022-11-15T06:29:06;10.32;;;5.32;;
4078;SDS011;2054;47.858;11.156;2022-11-15T06:31:33;13.85;;;6.22;;
4078;SDS011;2054;47.858;11.156;2022-11-15T06:34:02;10.63;;;5.30;;
4078;SDS011;2054;47.858;11.156;2022-11-15T06:36:29;12.45;;;6.85;;
4078;SDS011;2054;47.858;11.156;2022-11-15T06:38:56;15.88;;;6.97;;
4078;SDS011;2054;47.858;11.156;2022-11-15T06:41:23;7.88;;;5.13;;
4078;SDS011;2054;47.858;11.156;2022-11-15T06:43:51;7.53;;;4.53;;
4078;SDS011;2054;47.858;11.156;2022-11-15T06:46:18;9.13;;;4.55;;
4078;SDS011;2054;47.858;11.156;2022-11-15T06:48:45;8.30;;;5.00;;
4078;SDS011;2054;47.858;11.156;2022-11-15T06:51:14;12.85;;;5.30;;
4078;SDS011;2054;47.858;11.156;2022-11-15T06:53:41;8.35;;;4.57;;
4078;SDS011;2054;47.858;11.156;2022-11-15T06:56:08;6.47;;;4.32;;
4078;SDS011;2054;47.858;11.156;2022-11-15T06:58:35;6.93;;;4.18;;
4078;SDS011;2054;47.858;11.156;2022-11-15T07:01:04;7.30;;;4.43;;
4078;SDS011;2054;47.858;11.156;2022-11-15T07:03:31;7.80;;;4.20;;
4078;SDS011;2054;47.858;11.156;2022-11-15T07:06:00;9.02;;;5.63;;
4078;SDS011;2054;47.858;11.156;2022-11-15T07:08:29;7.93;;;4.70;;
4078;SDS011;2054;47.858;11.156;2022-11-15T07:10:57;8.35;;;4.63;;
4078;SDS011;2054;47.858;11.156;2022-11-15T07:13:25;8.55;;;4.88;;
4078;SDS011;2054;47.858;11.156;2022-11-15T07:15:53;6.68;;;4.25;;
4078;SDS011;2054;47.858;11.156;2022-11-15T07:18:20;7.78;;;4.90;;
4078;SDS011;2054;47.858;11.156;2022-11-15T07:20:47;11.48;;;5.70;;
4078;SDS011;2054;47.858;11.156;2022-11-15T07:23:14;9.48;;;5.03;;
4078;SDS011;2054;47.858;11.156;2022-11-15T07:25:43;13.82;;;5.90;;
4078;SDS011;2054;47.858;11.156;2022-11-15T07:28:10;8.10;;;4.55;;
4078;SDS011;2054;47.858;11.156;2022-11-15T07:30:37;6.50;;;4.43;;
4078;SDS011;2054;47.858;11.156;2022-11-15T07:33:04;7.07;;;4.32;;
4078;SDS011;2054;47.858;11.156;2022-11-15T07:35:31;9.35;;;4.78;;
4078;SDS011;2054;47.858;11.156;2022-11-15T07:37:59;9.93;;;5.25;;
4078;SDS011;2054;47.858;11.156;2022-11-15T07:40:27;11.77;;;5.90;;
4078;SDS011;2054;47.858;11.156;2022-11-15T07:42:59;10.50;;;5.65;;
4078;SDS011;2054;47.858;11.156;2022-11-15T07:45:27;11.00;;;5.32;;
4078;SDS011;2054;47.858;11.156;2022-11-15T07:47:54;12.93;;;5.20;;
4078;SDS011;2054;47.858;11.156;2022-11-15T07:50:22;9.10;;;5.22;;
4078;SDS011;2054;47.858;11.156;2022-11-15T07:52:53;11.05;;;5.53;;
4078;SDS011;2054;47.858;11.156;2022-11-15T07:55:20;12.30;;;5.60;;
4078;SDS011;2054;47.858;11.156;2022-11-15T07:57:48;10.88;;;5.53;;
4078;SDS011;2054;47.858;11.156;2022-11-15T08:00:17;10.82;;;4.50;;
4078;SDS011;2054;47.858;11.156;2022-11-15T08:02:45;7.30;;;4.65;;
4078;SDS011;2054;47.858;11.156;2022-11-15T08:05:12;9.82;;;4.90;;
4078;SDS011;2054;47.858;11.156;2022-11-15T08:07:39;9.63;;;4.45;;
4078;SDS011;2054;47.858;11.156;2022-11-15T08:10:07;6.18;;;4.43;;
4078;SDS011;2054;47.858;11.156;2022-11-15T08:12:34;11.90;;;4.45;;
4078;SDS011;2054;47.858;11.156;2022-11-15T08:15:01;9.85;;;4.22;;
4078;SDS011;2054;47.858;11.156;2022-11-15T08:17:30;8.93;;;4.88;;
4078;SDS011;2054;47.858;11.156;2022-11-15T08:19:58;10.50;;;5.10;;
4078;SDS011;2054;47.858;11.156;2022-11-15T08:22:26;7.88;;;4.95;;
4078;SDS011;2054;47.858;11.156;2022-11-15T08:24:53;10.63;;;5.30;;
4078;SDS011;2054;47.858;11.156;2022-11-15T08:27:20;8.15;;;5.50;;
4078;SDS011;2054;47.858;11.156;2022-11-15T08:29:48;8.63;;;5.15;;
4078;SDS011;2054;47.858;11.156;2022-11-15T08:32:15;7.78;;;4.60;;
4078;SDS011;2054;47.858;11.156;2022-11-15T08:34:44;8.50;;;5.20;;
4078;SDS011;2054;47.858;11.156;2022-11-15T08:37:11;8.55;;;5.13;;
4078;SDS011;2054;47.858;11.156;2022-11-15T08:39:38;6.18;;;4.22;;
4078;SDS011;2054;47.858;11.156;2022-11-15T08:42:05;7.78;;;4.28;;
4078;SDS011;2054;47.858;11.156;2022-11-15T08:44:33;6.32;;;4.32;;
4078;SDS011;2054;47.858;11.156;2022-11-15T08:47:00;5.18;;;3.75;;
4078;SDS011;2054;47.858;11.156;2022-11-15T08:49:27;6.10;;;4.13;;
4078;SDS011;2054;47.858;11.156;2022-11-15T08:51:56;5.72;;;4.00;;
4078;SDS011;2054;47.858;11.156;2022-11-15T08:54:23;6.07;;;3.88;;
4078;SDS011;2054;47.858;11.156;2022-11-15T08:56:50;6.72;;;4.50;;
4078;SDS011;2054;47.858;11.156;2022-11-15T08:59:17;7.00;;;4.07;;
4078;SDS011;2054;47.858;11.156;2022-11-15T09:01:45;5.72;;;4.20;;
4078;SDS011;2054;47.858;11.156;2022-11-15T09:04:12;5.35;;;4.03;;
4078;SDS011;2054;47.858;11.156;2022-11-15T09:06:39;6.72;;;4.32;;
4078;SDS011;2054;47.858;11.156;2022-11-15T09:09:08;6.85;;;4.55;;
4078;SDS011;2054;47.858;11.156;2022-11-15T09:11:35;7.13;;;4.30;;
4078;SDS011;2054;47.858;11.156;2022-11-15T09:14:02;8.18;;;4.45;;
4078;SDS011;2054;47.858;11.156;2022-11-15T09:16:30;6.53;;;4.03;;
4078;SDS011;2054;47.858;11.156;2022-11-15T09:18:57;9.80;;;3.70;;
4078;SDS011;2054;47.858;11.156;2022-11-15T09:21:24;9.55;;;3.90;;
4078;SDS011;2054;47.858;11.156;2022-11-15T09:23:51;6.78;;;3.88;;
4078;SDS011;2054;47.858;11.156;2022-11-15T09:26:20;4.40;;;3.30;;
4078;SDS011;2054;47.858;11.156;2022-11-15T09:28:47;8.73;;;4.20;;
4078;SDS011;2054;47.858;11.156;2022-11-15T09:31:14;4.93;;;3.28;;
4078;SDS011;2054;47.858;11.156;2022-11-15T09:33:42;5.47;;;3.45;;
4078;SDS011;2054;47.858;11.156;2022-11-15T09:36:10;7.75;;;3.40;;
4078;SDS011;2054;47.858;11.156;2022-11-15T09:38:38;5.68;;;3.75;;
4078;SDS011;2054;47.858;11.156;2022-11-15T09:43:53;4.03;;;3.15;;
4078;SDS011;2054;47.858;11.156;2022-11-15T09:46:31;6.13;;;3.65;;
4078;SDS011;2054;47.858;11.156;2022-11-15T09:49:00;6.45;;;3.35;;
4078;SDS011;2054;47.858;11.156;2022-11-15T09:51:29;4.95;;;3.15;;
4078;SDS011;2054;47.858;11.156;2022-11-15T09:54:02;4.15;;;3.10;;
4078;SDS011;2054;47.858;11.156;2022-11-15T09:56:30;5.93;;;3.22;;
4078;SDS011;2054;47.858;11.156;2022-11-15T09:59:02;7.75;;;2.90;;
4078;SDS011;2054;47.858;11.156;2022-11-15T10:01:36;6.40;;;2.92;;
4078;SDS011;2054;47.858;11.156;2022-11-15T10:04:04;5.90;;;2.90;;
4078;SDS011;2054;47.858;11.156;2022-11-15T10:06:31;4.70;;;3.15;;
4078;SDS011;2054;47.858;11.156;2022-11-15T10:09:01;5.22;;;3.10;;
4078;SDS011;2054;47.858;11.156;2022-11-15T10:11:32;3.75;;;2.67;;
4078;SDS011;2054;47.858;11.156;2022-11-15T10:14:01;3.22;;;2.70;;
4078;SDS011;2054;47.858;11.156;2022-11-15T10:19:16;3.40;;;2.80;;
4078;SDS011;2054;47.858;11.156;2022-11-15T10:21:55;5.13;;;3.20;;
4078;SDS011;2054;47.858;11.156;2022-11-15T10:24:26;3.35;;;2.45;;
4078;SDS011;2054;47.858;11.156;2022-11-15T10:26:54;5.07;;;2.75;;
4078;SDS011;2054;47.858;11.156;2022-11-15T10:29:23;3.65;;;2.88;;
4078;SDS011;2054;47.858;11.156;2022-11-15T10:31:51;3.20;;;2.40;;
4078;SDS011;2054;47.858;11.156;2022-11-15T10:34:19;3.80;;;2.15;;
4078;SDS011;2054;47.858;11.156;2022-11-15T10:36:47;4.22;;;2.50;;
4078;SDS011;2054;47.858;11.156;2022-11-15T10:39:20;3.17;;;2.28;;
4078;SDS011;2054;47.858;11.156;2022-11-15T10:41:47;3.30;;;2.05;;
4078;SDS011;2054;47.858;11.156;2022-11-15T10:44:19;3.17;;;2.33;;
4078;SDS011;2054;47.858;11.156;2022-11-15T10:46:50;3.17;;;2.30;;
4078;SDS011;2054;47.858;11.156;2022-11-15T10:49:31;4.22;;;2.33;;
4078;SDS011;2054;47.858;11.156;2022-11-15T10:51:59;3.97;;;2.30;;
4078;SDS011;2054;47.858;11.156;2022-11-15T10:54:29;2.63;;;1.85;;
4078;SDS011;2054;47.858;11.156;2022-11-15T10:56:58;2.95;;;2.00;;
4078;SDS011;2054;47.858;11.156;2022-11-15T10:59:26;3.33;;;2.28;;
4078;SDS011;2054;47.858;11.156;2022-11-15T11:01:56;3.92;;;2.38;;
4078;SDS011;2054;47.858;11.156;2022-11-15T11:04:23;4.80;;;2.30;;
4078;SDS011;2054;47.858;11.156;2022-11-15T11:06:51;3.25;;;2.15;;
4078;SDS011;2054;47.858;11.156;2022-11-15T11:09:27;2.70;;;2.25;;
4078;SDS011;2054;47.858;11.156;2022-11-15T11:11:54;2.90;;;2.40;;
4078;SDS011;2054;47.858;11.156;2022-11-15T11:14:22;2.17;;;1.98;;
4078;SDS011;2054;47.858;11.156;2022-11-15T11:16:52;4.75;;;2.20;;
4078;SDS011;2054;47.858;11.156;2022-11-15T11:19:30;2.50;;;2.03;;
4078;SDS011;2054;47.858;11.156;2022-11-15T11:22:01;2.70;;;1.95;;
4078;SDS011;2054;47.858;11.156;2022-11-15T11:24:32;3.13;;;2.28;;
4078;SDS011;2054;47.858;11.156;2022-11-15T11:29:48;2.47;;;2.00;;
4078;SDS011;2054;47.858;11.156;2022-11-15T11:32:23;3.00;;;2.33;;
4078;SDS011;2054;47.858;11.156;2022-11-15T11:34:58;2.42;;;2.00;;
4078;SDS011;2054;47.858;11.156;2022-11-15T11:37:29;2.78;;;2.28;;
4078;SDS011;2054;47.858;11.156;2022-11-15T11:40:02;2.70;;;2.05;;
4078;SDS011;2054;47.858;11.156;2022-11-15T11:42:33;2.75;;;2.28;;
4078;SDS011;2054;47.858;11.156;2022-11-15T11:45:05;2.30;;;1.90;;
4078;SDS011;2054;47.858;11.156;2022-11-15T11:47:39;2.13;;;1.92;;
4078;SDS011;2054;47.858;11.156;2022-11-15T11:50:11;2.97;;;2.33;;
4078;SDS011;2054;47.858;11.156;2022-11-15T11:52:41;2.92;;;1.83;;
4078;SDS011;2054;47.858;11.156;2022-11-15T11:55:12;2.25;;;1.90;;
4078;SDS011;2054;47.858;11.156;2022-11-15T11:57:41;2.63;;;2.20;;
4078;SDS011;2054;47.858;11.156;2022-11-15T12:00:15;3.72;;;1.85;;
4078;SDS011;2054;47.858;11.156;2022-11-15T12:02:44;3.83;;;2.08;;
4078;SDS011;2054;47.858;11.156;2022-11-15T12:05:16;3.05;;;2.03;;
4078;SDS011;2054;47.858;11.156;2022-11-15T12:07:45;3.90;;;2.13;;
4078;SDS011;2054;47.858;11.156;2022-11-15T12:10:18;2.35;;;1.90;;
4078;SDS011;2054;47.858;11.156;2022-11-15T12:12:49;3.50;;;2.03;;
4078;SDS011;2054;47.858;11.156;2022-11-15T12:15:18;2.70;;;2.00;;
4078;SDS011;2054;47.858;11.156;2022-11-15T12:17:46;2.72;;;2.10;;
4078;SDS011;2054;47.858;11.156;2022-11-15T12:20:16;3.22;;;1.95;;
4078;SDS011;2054;47.858;11.156;2022-11-15T12:22:46;3.25;;;2.13;;
4078;SDS011;2054;47.858;11.156;2022-11-15T12:25:15;3.05;;;1.90;;
4078;SDS011;2054;47.858;11.156;2022-11-15T12:27:44;2.30;;;1.90;;
4078;SDS011;2054;47.858;11.156;2022-11-15T12:30:14;2.75;;;2.00;;
4078;SDS011;2054;47.858;11.156;2022-11-15T12:32:48;2.42;;;1.55;;
4078;SDS011;2054;47.858;11.156;2022-11-15T12:35:29;2.42;;;1.92;;
4078;SDS011;2054;47.858;11.156;2022-11-15T12:37:58;3.83;;;2.10;;
4078;SDS011;2054;47.858;11.156;2022-11-15T12:40:32;2.78;;;1.98;;
4078;SDS011;2054;47.858;11.156;2022-11-15T12:45:45;2.78;;;1.98;;
4078;SDS011;2054;47.858;11.156;2022-11-15T12:50:59;2.13;;;1.75;;
4078;SDS011;2054;47.858;11.156;2022-11-15T12:53:27;3.53;;;2.13;;
4078;SDS011;2054;47.858;11.156;2022-11-15T12:58:41;4.07;;;2.00;;
4078;SDS011;2054;47.858;11.156;2022-11-15T13:01:10;2.63;;;2.20;;
4078;SDS011;2054;47.858;11.156;2022-11-15T13:04:07;3.47;;;2.03;;
4078;SDS011;2054;47.858;11.156;2022-11-15T13:06:39;3.28;;;1.83;;
4078;SDS011;2054;47.858;11.156;2022-11-15T13:11:50;2.75;;;2.03;;
4078;SDS011;2054;47.858;11.156;2022-11-15T13:17:20;4.03;;;2.20;;
4078;SDS011;2054;47.858;11.156;2022-11-15T13:19:52;4.00;;;2.30;;
4078;SDS011;2054;47.858;11.156;2022-11-15T13:22:21;2.72;;;2.10;;
4078;SDS011;2054;47.858;11.156;2022-11-15T13:25:14;4.32;;;2.30;;
4078;SDS011;2054;47.858;11.156;2022-11-15T13:27:44;3.05;;;2.40;;
4078;SDS011;2054;47.858;11.156;2022-11-15T13:30:13;3.47;;;2.50;;
4078;SDS011;2054;47.858;11.156;2022-11-15T13:32:40;3.05;;;2.33;;
4078;SDS011;2054;47.858;11.156;2022-11-15T13:35:08;3.83;;;2.10;;
4078;SDS011;2054;47.858;11.156;2022-11-15T13:37:36;3.45;;;2.50;;
4078;SDS011;2054;47.858;11.156;2022-11-15T13:40:24;3.47;;;2.30;;
4078;SDS011;2054;47.858;11.156;2022-11-15T13:42:52;2.88;;;2.20;;
4078;SDS011;2054;47.858;11.156;2022-11-15T13:45:19;2.72;;;2.47;;
4078;SDS011;2054;47.858;11.156;2022-11-15T13:47:56;7.15;;;2.55;;
4078;SDS011;2054;47.858;11.156;2022-11-15T13:50:25;4.90;;;2.90;;
4078;SDS011;2054;47.858;11.156;2022-11-15T13:52:56;3.55;;;2.58;;
4078;SDS011;2054;47.858;11.156;2022-11-15T13:55:24;3.67;;;2.42;;
4078;SDS011;2054;47.858;11.156;2022-11-15T13:57:53;2.90;;;2.60;;
4078;SDS011;2054;47.858;11.156;2022-11-15T14:00:25;4.20;;;2.30;;
4078;SDS011;2054;47.858;11.156;2022-11-15T14:02:52;3.38;;;2.40;;
4078;SDS011;2054;47.858;11.156;2022-11-15T14:05:21;4.65;;;2.50;;
4078;SDS011;2054;47.858;11.156;2022-11-15T14:07:56;6.53;;;3.28;;
4078;SDS011;2054;47.858;11.156;2022-11-15T14:10:27;2.80;;;2.38;;
4078;SDS011;2054;47.858;11.156;2022-11-15T14:12:55;6.28;;;2.42;;
4078;SDS011;2054;47.858;11.156;2022-11-15T14:15:27;4.53;;;2.47;;
4078;SDS011;2054;47.858;11.156;2022-11-15T14:17:55;3.45;;;2.53;;
4078;SDS011;2054;47.858;11.156;2022-11-15T14:20:26;5.80;;;2.63;;
4078;SDS011;2054;47.858;11.156;2022-11-15T14:22:57;4.03;;;2.10;;
4078;SDS011;2054;47.858;11.156;2022-11-15T14:25:25;2.65;;;2.38;;
4078;SDS011;2054;47.858;11.156;2022-11-15T14:28:12;5.13;;;2.70;;
4078;SDS011;2054;47.858;11.156;2022-11-15T14:30:41;4.00;;;2.90;;
4078;SDS011;2054;47.858;11.156;2022-11-15T14:33:17;4.20;;;2.35;;
4078;SDS011;2054;47.858;11.156;2022-11-15T14:35:44;3.60;;;2.60;;
4078;SDS011;2054;47.858;11.156;2022-11-15T14:38:13;9.57;;;2.80;;
4078;SDS011;2054;47.858;11.156;2022-11-15T14:40:40;3.05;;;2.47;;
4078;SDS011;2054;47.858;11.156;2022-11-15T14:43:08;3.53;;;3.17;;
4078;SDS011;2054;47.858;11.156;2022-11-15T14:45:36;3.85;;;3.00;;
4078;SDS011;2054;47.858;11.156;2022-11-15T14:48:03;7.18;;;3.03;;
4078;SDS011;2054;47.858;11.156;2022-11-15T14:50:30;4.72;;;3.30;;
4078;SDS011;2054;47.858;11.156;2022-11-15T14:52:58;4.30;;;3.00;;
4078;SDS011;2054;47.858;11.156;2022-11-15T14:55:29;4.65;;;2.88;;
4078;SDS011;2054;47.858;11.156;2022-11-15T14:58:00;3.65;;;2.47;;
4078;SDS011;2054;47.858;11.156;2022-11-15T15:00:28;5.22;;;3.80;;
4078;SDS011;2054;47.858;11.156;2022-11-15T15:02:55;4.85;;;3.50;;
4078;SDS011;2054;47.858;11.156;2022-11-15T15:05:25;5.22;;;3.33;;
4078;SDS011;2054;47.858;11.156;2022-11-15T15:07:53;4.60;;;3.78;;
4078;SDS011;2054;47.858;11.156;2022-11-15T15:10:20;5.20;;;3.72;;
4078;SDS011;2054;47.858;11.156;2022-11-15T15:12:48;3.50;;;2.92;;
4078;SDS011;2054;47.858;11.156;2022-11-15T15:15:16;4.95;;;3.55;;
4078;SDS011;2054;47.858;11.156;2022-11-15T15:17:44;4.55;;;3.45;;
4078;SDS011;2054;47.858;11.156;2022-11-15T15:20:11;4.25;;;2.97;;
4078;SDS011;2054;47.858;11.156;2022-11-15T15:22:38;4.90;;;3.13;;
4078;SDS011;2054;47.858;11.156;2022-11-15T15:25:19;4.28;;;3.15;;
4078;SDS011;2054;47.858;11.156;2022-11-15T15:27:48;7.13;;;3.50;;
4078;SDS011;2054;47.858;11.156;2022-11-15T15:30:16;5.00;;;2.70;;
4078;SDS011;2054;47.858;11.156;2022-11-15T15:32:43;4.47;;;2.67;;
4078;SDS011;2054;47.858;11.156;2022-11-15T15:35:11;5.10;;;2.92;;
4078;SDS011;2054;47.858;11.156;2022-11-15T15:37:38;5.60;;;3.50;;
4078;SDS011;2054;47.858;11.156;2022-11-15T15:40:08;5.53;;;2.60;;
4078;SDS011;2054;47.858;11.156;2022-11-15T15:42:38;5.72;;;3.20;;
4078;SDS011;2054;47.858;11.156;2022-11-15T15:45:07;4.32;;;3.20;;
4078;SDS011;2054;47.858;11.156;2022-11-15T15:47:34;4.88;;;2.67;;
4078;SDS011;2054;47.858;11.156;2022-11-15T15:50:02;4.13;;;2.95;;
4078;SDS011;2054;47.858;11.156;2022-11-15T15:52:30;5.82;;;2.92;;
4078;SDS011;2054;47.858;11.156;2022-11-15T15:54:57;4.50;;;2.83;;
4078;SDS011;2054;47.858;11.156;2022-11-15T15:57:24;3.22;;;2.45;;
4078;SDS011;2054;47.858;11.156;2022-11-15T15:59:51;4.78;;;3.15;;
4078;SDS011;2054;47.858;11.156;2022-11-15T16:02:20;4.78;;;2.80;;
4078;SDS011;2054;47.858;11.156;2022-11-15T16:04:47;3.35;;;2.53;;
4078;SDS011;2054;47.858;11.156;2022-11-15T16:07:16;5.25;;;2.80;;
4078;SDS011;2054;47.858;11.156;2022-11-15T16:09:44;3.38;;;2.70;;
4078;SDS011;2054;47.858;11.156;2022-11-15T16:12:29;4.28;;;2.55;;
4078;SDS011;2054;47.858;11.156;2022-11-15T16:14:56;5.30;;;2.83;;
4078;SDS011;2054;47.858;11.156;2022-11-15T16:17:30;4.15;;;2.40;;
4078;SDS011;2054;47.858;11.156;2022-11-15T16:19:57;4.30;;;2.38;;
4078;SDS011;2054;47.858;11.156;2022-11-15T16:22:25;5.35;;;2.60;;
4078;SDS011;2054;47.858;11.156;2022-11-15T16:24:54;4.18;;;2.85;;
4078;SDS011;2054;47.858;11.156;2022-11-15T16:27:21;4.95;;;2.78;;
4078;SDS011;2054;47.858;11.156;2022-11-15T16:29:48;3.92;;;2.47;;
4078;SDS011;2054;47.858;11.156;2022-11-15T16:32:16;3.95;;;2.85;;
4078;SDS011;2054;47.858;11.156;2022-11-15T16:34:44;5.13;;;2.85;;
4078;SDS011;2054;47.858;11.156;2022-11-15T16:37:14;6.13;;;3.30;;
4078;SDS011;2054;47.858;11.156;2022-11-15T16:39:45;4.45;;;2.90;;
4078;SDS011;2054;47.858;11.156;2022-11-15T16:42:13;3.60;;;2.97;;
4078;SDS011;2054;47.858;11.156;2022-11-15T16:44:40;4.78;;;3.15;;
4078;SDS011;2054;47.858;11.156;2022-11-15T16:47:10;4.18;;;3.13;;
4078;SDS011;2054;47.858;11.156;2022-11-15T16:49:39;6.30;;;3.25;;
4078;SDS011;2054;47.858;11.156;2022-11-15T16:52:11;5.90;;;2.92;;
4078;SDS011;2054;47.858;11.156;2022-11-15T16:54:38;5.55;;;3.75;;
4078;SDS011;2054;47.858;11.156;2022-11-15T16:57:07;3.65;;;2.85;;
4078;SDS011;2054;47.858;11.156;2022-11-15T16:59:34;5.80;;;3.28;;
4078;SDS011;2054;47.858;11.156;2022-11-15T17:02:01;11.73;;;5.60;;
4078;SDS011;2054;47.858;11.156;2022-11-15T17:04:28;9.93;;;5.03;;
4078;SDS011;2054;47.858;11.156;2022-11-15T17:06:57;9.50;;;5.78;;
4078;SDS011;2054;47.858;11.156;2022-11-15T17:09:26;8.88;;;5.00;;
4078;SDS011;2054;47.858;11.156;2022-11-15T17:11:53;5.80;;;3.47;;
4078;SDS011;2054;47.858;11.156;2022-11-15T17:14:20;6.40;;;3.50;;
4078;SDS011;2054;47.858;11.156;2022-11-15T17:16:48;4.60;;;3.28;;
4078;SDS011;2054;47.858;11.156;2022-11-15T17:19:15;6.32;;;2.95;;
4078;SDS011;2054;47.858;11.156;2022-11-15T17:21:43;5.72;;;3.20;;
4078;SDS011;2054;47.858;11.156;2022-11-15T17:24:11;4.63;;;2.75;;
4078;SDS011;2054;47.858;11.156;2022-11-15T17:26:39;4.25;;;3.28;;
4078;SDS011;2054;47.858;11.156;2022-11-15T17:29:07;5.20;;;3.20;;
4078;SDS011;2054;47.858;11.156;2022-11-15T17:31:35;4.50;;;2.97;;
4078;SDS011;2054;47.858;11.156;2022-11-15T17:34:03;5.85;;;3.10;;
4078;SDS011;2054;47.858;11.156;2022-11-15T17:36:30;5.05;;;3.20;;
4078;SDS011;2054;47.858;11.156;2022-11-15T17:38:58;5.13;;;2.75;;
4078;SDS011;2054;47.858;11.156;2022-11-15T17:41:25;6.47;;;3.30;;
4078;SDS011;2054;47.858;11.156;2022-11-15T17:43:54;4.35;;;3.22;;
4078;SDS011;2054;47.858;11.156;2022-11-15T17:46:21;4.75;;;3.40;;
4078;SDS011;2054;47.858;11.156;2022-11-15T17:48:49;5.22;;;3.05;;
4078;SDS011;2054;47.858;11.156;2022-11-15T17:51:16;6.15;;;3.88;;
4078;SDS011;2054;47.858;11.156;2022-11-15T17:53:44;8.27;;;4.28;;
4078;SDS011;2054;47.858;11.156;2022-11-15T17:56:13;6.20;;;4.20;;
4078;SDS011;2054;47.858;11.156;2022-11-15T17:58:41;7.60;;;4.28;;
4078;SDS011;2054;47.858;11.156;2022-11-15T18:01:11;8.48;;;5.18;;
4078;SDS011;2054;47.858;11.156;2022-11-15T18:03:40;9.40;;;5.80;;
4078;SDS011;2054;47.858;11.156;2022-11-15T18:06:08;13.15;;;6.25;;
4078;SDS011;2054;47.858;11.156;2022-11-15T18:08:35;9.75;;;5.43;;
4078;SDS011;2054;47.858;11.156;2022-11-15T18:11:03;8.52;;;5.65;;
4078;SDS011;2054;47.858;11.156;2022-11-15T18:13:31;9.80;;;4.43;;
4078;SDS011;2054;47.858;11.156;2022-11-15T18:15:59;11.82;;;4.80;;
4078;SDS011;2054;47.858;11.156;2022-11-15T18:18:30;6.22;;;3.65;;
4078;SDS011;2054;47.858;11.156;2022-11-15T18:21:01;5.15;;;3.60;;
4078;SDS011;2054;47.858;11.156;2022-11-15T18:23:28;6.40;;;3.55;;
4078;SDS011;2054;47.858;11.156;2022-11-15T18:25:56;22.10;;;12.55;;
4078;SDS011;2054;47.858;11.156;2022-11-15T18:28:27;14.20;;;8.82;;
4078;SDS011;2054;47.858;11.156;2022-11-15T18:30:55;9.20;;;5.93;;
4078;SDS011;2054;47.858;11.156;2022-11-15T18:33:23;8.05;;;5.38;;
4078;SDS011;2054;47.858;11.156;2022-11-15T18:35:58;12.43;;;7.80;;
4078;SDS011;2054;47.858;11.156;2022-11-15T18:38:26;14.50;;;9.40;;
4078;SDS011;2054;47.858;11.156;2022-11-15T18:40:54;16.10;;;9.88;;
4078;SDS011;2054;47.858;11.156;2022-11-15T18:43:22;10.60;;;6.70;;
4078;SDS011;2054;47.858;11.156;2022-11-15T18:45:49;6.15;;;4.65;;
4078;SDS011;2054;47.858;11.156;2022-11-15T18:48:16;9.90;;;4.60;;
4078;SDS011;2054;47.858;11.156;2022-11-15T18:50:44;5.95;;;4.53;;
4078;SDS011;2054;47.858;11.156;2022-11-15T18:53:12;6.95;;;4.40;;
4078;SDS011;2054;47.858;11.156;2022-11-15T18:55:40;5.60;;;3.90;;
4078;SDS011;2054;47.858;11.156;2022-11-15T18:58:07;5.40;;;3.65;;
4078;SDS011;2054;47.858;11.156;2022-11-15T19:00:34;6.70;;;3.47;;
4078;SDS011;2054;47.858;11.156;2022-11-15T19:03:01;7.20;;;4.13;;
4078;SDS011;2054;47.858;11.156;2022-11-15T19:05:28;8.52;;;4.95;;
4078;SDS011;2054;47.858;11.156;2022-11-15T19:07:55;8.73;;;4.70;;
4078;SDS011;2054;47.858;11.156;2022-11-15T19:10:24;7.03;;;4.53;;
4078;SDS011;2054;47.858;11.156;2022-11-15T19:12:51;8.70;;;4.80;;
4078;SDS011;2054;47.858;11.156;2022-11-15T19:15:20;9.63;;;4.47;;
4078;SDS011;2054;47.858;11.156;2022-11-15T19:17:47;6.13;;;3.60;;